Time;durP1;ratioP1;P1;durP2;ratioP2;P2;SDS_P1;SDS_P2;PMS_P1;PMS_P2;Temp;Humidity;BMP_temperature;BMP_pressure;BME280_temperature;BME280_humidity;BME280_pressure;Samples;Min_cycle;Max_cycle;Signal;HPM_P1;HPM_P2
2022/08/08 00:00:49;;;;;;;2.17;1.52;;;;;;;;;;6184113;28;21357;-68
2022/08/08 00:04:02;;;;;;;2.15;1.05;;;;;;;;;;6180949;28;20055;-68
2022/08/08 00:07:07;;;;;;;1.40;1.10;;;;;;;;;;6182808;28;20062;-70
2022/08/08 00:10:13;;;;;;;2.25;1.40;;;;;;;;;;6182145;28;20337;-69
2022/08/08 00:13:21;;;;;;;2.70;1.10;;;;;;;;;;6181631;28;20217;-71
2022/08/08 00:16:25;;;;;;;1.55;1.20;;;;;;;;;;6182679;28;20054;-69
2022/08/08 00:19:30;;;;;;;1.05;0.82;;;;;;;;;;6180159;28;20046;-68
2022/08/08 00:22:37;;;;;;;1.38;1.10;;;;;;;;;;6181938;28;20058;-70
2022/08/08 00:25:40;;;;;;;2.40;1.20;;;;;;;;;;6183400;28;20384;-69
2022/08/08 00:28:46;;;;;;;2.50;1.42;;;;;;;;;;6184367;28;20054;-70
2022/08/08 00:31:50;;;;;;;2.72;1.20;;;;;;;;;;6181887;28;20046;-69
2022/08/08 00:35:10;;;;;;;1.52;1.00;;;;;;;;;;6183997;28;20288;-69
2022/08/08 00:38:20;;;;;;;1.05;0.93;;;;;;;;;;6182826;28;20240;-69
2022/08/08 00:42:09;;;;;;;2.55;1.25;;;;;;;;;;6184491;28;20062;-69
2022/08/08 00:45:43;;;;;;;1.60;1.20;;;;;;;;;;6177954;28;20054;-69
2022/08/08 00:49:12;;;;;;;;;;;;;;;;;;6182838;28;20127;-68
2022/08/08 00:52:25;;;;;;;1.20;1.00;;;;;;;;;;6100263;29;19927;-69
2022/08/08 00:55:57;;;;;;;1.75;1.20;;;;;;;;;;6109952;29;20055;-69
2022/08/08 00:59:32;;;;;;;2.80;1.27;;;;;;;;;;6095830;29;20048;-69
2022/08/08 01:03:18;;;;;;;2.38;1.38;;;;;;;;;;6106586;29;20052;-68
2022/08/08 01:06:43;;;;;;;2.47;1.25;;;;;;;;;;6106326;29;20052;-68
2022/08/08 01:10:15;;;;;;;1.50;1.15;;;;;;;;;;6106235;29;20052;-69
2022/08/08 01:13:49;;;;;;;1.67;1.17;;;;;;;;;;6107610;29;20088;-72
2022/08/08 01:17:07;;;;;;;3.95;1.45;;;;;;;;;;6112347;29;20052;-71
2022/08/08 01:20:52;;;;;;;1.80;1.27;;;;;;;;;;6111051;29;20073;-69
2022/08/08 01:24:26;;;;;;;1.58;1.23;;;;;;;;;;6101859;29;20048;-69
2022/08/08 01:27:51;;;;;;;1.65;1.13;;;;;;;;;;6142551;28;20562;-68
2022/08/08 01:31:26;;;;;;;1.25;1.00;;;;;;;;;;6187550;28;20050;-69
2022/08/08 01:35:07;;;;;;;2.30;1.15;;;;;;;;;;6186565;28;20109;-70
2022/08/08 01:38:43;;;;;;;2.33;1.20;;;;;;;;;;6184834;28;20065;-71
2022/08/08 01:41:52;;;;;;;1.77;1.30;;;;;;;;;;6155407;28;20054;-69
2022/08/08 01:45:07;;;;;;;1.60;1.10;;;;;;;;;;6187071;28;20043;-70
2022/08/08 01:48:14;;;;;;;2.30;1.20;;;;;;;;;;6185084;28;20066;-68
2022/08/08 01:51:38;;;;;;;3.50;1.35;;;;;;;;;;6184030;28;20058;-69
2022/08/08 01:54:51;;;;;;;3.70;1.30;;;;;;;;;;6184744;28;20704;-69
2022/08/08 01:58:10;;;;;;;2.22;1.10;;;;;;;;;;6183154;28;20126;-69
2022/08/08 02:01:19;;;;;;;2.40;1.23;;;;;;;;;;6184657;28;20059;-71
2022/08/08 02:04:27;;;;;;;2.28;1.20;;;;;;;;;;6183297;28;20055;-68
2022/08/08 02:07:46;;;;;;;3.53;1.27;;;;;;;;;;6185013;28;20054;-70
2022/08/08 02:10:59;;;;;;;2.30;1.23;;;;;;;;;;6185469;28;20214;-69
2022/08/08 02:14:01;;;;;;;;;;;;;;;;;;6186348;28;20321;-69
2022/08/08 02:17:10;;;;;;;1.80;1.25;;;;;;;;;;6187357;28;19925;-68
2022/08/08 02:20:23;;;;;;;2.28;1.20;;;;;;;;;;6183667;28;20042;-69
2022/08/08 02:23:31;;;;;;;1.55;1.20;;;;;;;;;;6184241;28;20325;-68
2022/08/08 02:26:34;;;;;;;1.92;1.63;;;;;;;;;;6183846;28;20053;-71
2022/08/08 02:29:44;;;;;;;4.00;1.27;;;;;;;;;;6184560;28;20077;-68
2022/08/08 02:33:06;;;;;;;1.52;1.08;;;;;;;;;;6184885;28;20054;-68
2022/08/08 02:36:25;;;;;;;0.90;0.80;;;;;;;;;;6185332;28;20093;-69
2022/08/08 02:39:50;;;;;;;3.67;1.20;;;;;;;;;;6180249;28;20349;-68
2022/08/08 02:43:28;;;;;;;2.00;1.20;;;;;;;;;;6188091;28;20058;-68
2022/08/08 02:46:38;;;;;;;9.00;1.60;;;;;;;;;;6186809;28;20062;-69
2022/08/08 02:49:59;;;;;;;3.38;1.20;;;;;;;;;;6186893;28;20063;-69
2022/08/08 02:53:14;;;;;;;2.35;1.30;;;;;;;;;;6184456;28;20240;-68
2022/08/08 02:56:51;;;;;;;2.08;1.27;;;;;;;;;;6183982;28;20097;-69
2022/08/08 03:00:23;;;;;;;1.80;1.30;;;;;;;;;;6184481;28;20246;-72
2022/08/08 03:04:01;;;;;;;2.90;1.38;;;;;;;;;;6183983;28;20062;-70
2022/08/08 03:07:39;;;;;;;2.28;1.33;;;;;;;;;;6183180;28;20053;-69
2022/08/08 03:11:15;;;;;;;3.03;1.40;;;;;;;;;;6182676;28;20054;-68
2022/08/08 03:14:53;;;;;;;2.70;1.40;;;;;;;;;;6183716;28;20050;-68
2022/08/08 03:18:00;;;;;;;1.70;1.23;;;;;;;;;;6169824;28;20050;-69
2022/08/08 03:21:01;;;;;;;2.17;1.25;;;;;;;;;;6182528;28;20114;-68
2022/08/08 03:24:05;;;;;;;3.65;1.60;;;;;;;;;;6182657;28;20101;-69
2022/08/08 03:27:20;;;;;;;2.55;1.25;;;;;;;;;;6184023;28;20042;-70
2022/08/08 03:30:23;;;;;;;4.55;1.42;;;;;;;;;;6181024;28;20093;-70
2022/08/08 03:33:24;;;;;;;2.50;1.35;;;;;;;;;;6183620;28;20177;-68
2022/08/08 03:36:26;;;;;;;2.10;1.65;;;;;;;;;;6183137;28;20098;-68
2022/08/08 03:39:29;;;;;;;3.53;1.13;;;;;;;;;;6181990;28;20553;-71
2022/08/08 03:42:31;;;;;;;2.30;1.42;;;;;;;;;;6183054;28;20050;-68
2022/08/08 03:45:33;;;;;;;3.35;1.30;;;;;;;;;;6182620;28;20244;-69
2022/08/08 03:48:34;;;;;;;2.95;1.40;;;;;;;;;;6186590;28;20128;-69
2022/08/08 03:51:36;;;;;;;2.55;1.58;;;;;;;;;;6183562;28;20634;-69
2022/08/08 03:54:39;;;;;;;2.63;1.40;;;;;;;;;;6181869;28;20121;-69
2022/08/08 03:57:45;;;;;;;1.85;1.40;;;;;;;;;;6179731;28;20058;-68
2022/08/08 04:00:52;;;;;;;1.63;1.45;;;;;;;;;;6182791;28;20257;-72
2022/08/08 04:03:53;;;;;;;5.13;1.50;;;;;;;;;;6182340;28;20054;-68
2022/08/08 04:06:56;;;;;;;2.22;1.60;;;;;;;;;;6181895;28;20065;-70
2022/08/08 04:09:59;;;;;;;1.58;1.23;;;;;;;;;;6182708;28;20097;-69
2022/08/08 04:13:01;;;;;;;2.55;1.75;;;;;;;;;;6184725;28;20057;-69
2022/08/08 04:16:03;;;;;;;2.05;1.40;;;;;;;;;;6181629;28;20054;-69
2022/08/08 04:19:05;;;;;;;2.28;1.50;;;;;;;;;;6181187;28;20047;-70
2022/08/08 04:22:07;;;;;;;3.15;1.73;;;;;;;;;;6181133;28;20047;-67
2022/08/08 04:25:10;;;;;;;2.58;1.60;;;;;;;;;;6181235;28;20051;-68
2022/08/08 04:28:11;;;;;;;2.03;1.58;;;;;;;;;;6180205;28;20058;-68
2022/08/08 04:31:13;;;;;;;1.90;1.38;;;;;;;;;;6182194;28;20118;-68
2022/08/08 04:34:15;;;;;;;3.05;1.52;;;;;;;;;;6184754;28;20050;-71
2022/08/08 04:37:17;;;;;;;4.97;1.80;;;;;;;;;;6181291;28;20273;-69
2022/08/08 04:40:21;;;;;;;2.72;2.00;;;;;;;;;;6182562;28;20237;-69
2022/08/08 04:43:23;;;;;;;2.63;1.90;;;;;;;;;;6181547;28;20042;-70
2022/08/08 04:46:24;;;;;;;3.25;1.60;;;;;;;;;;6184020;28;20054;-68
2022/08/08 04:49:26;;;;;;;3.85;1.52;;;;;;;;;;6184294;28;20285;-67
2022/08/08 04:52:28;;;;;;;6.03;1.52;;;;;;;;;;6186822;28;20113;-70
2022/08/08 04:55:31;;;;;;;2.67;1.30;;;;;;;;;;6185269;28;20210;-70
2022/08/08 04:58:32;;;;;;;5.95;1.90;;;;;;;;;;6186992;28;20282;-68
2022/08/08 05:01:34;;;;;;;3.28;1.58;;;;;;;;;;6185835;28;20546;-67
2022/08/08 05:04:36;;;;;;;3.35;1.58;;;;;;;;;;6186527;28;20124;-71
2022/08/08 05:07:37;;;;;;;2.67;1.52;;;;;;;;;;6186451;28;20334;-74
2022/08/08 05:10:40;;;;;;;2.63;1.48;;;;;;;;;;6187099;28;20062;-71
2022/08/08 05:13:42;;;;;;;3.15;1.55;;;;;;;;;;6184281;28;20105;-70
2022/08/08 05:16:44;;;;;;;2.58;1.48;;;;;;;;;;6185960;28;20082;-71
2022/08/08 05:19:46;;;;;;;3.85;1.60;;;;;;;;;;6184380;28;20141;-70
2022/08/08 05:22:49;;;;;;;3.30;1.55;;;;;;;;;;6188343;28;20046;-70
2022/08/08 05:25:52;;;;;;;4.45;1.55;;;;;;;;;;6184295;28;20105;-70
2022/08/08 05:28:53;;;;;;;3.90;1.83;;;;;;;;;;6184731;28;20082;-72
2022/08/08 05:31:55;;;;;;;2.45;1.52;;;;;;;;;;6186948;28;20043;-69
2022/08/08 05:34:59;;;;;;;2.45;1.35;;;;;;;;;;6182802;28;20050;-70
2022/08/08 05:38:04;;;;;;;1.70;1.60;;;;;;;;;;6185536;28;20329;-70
2022/08/08 05:41:07;;;;;;;4.47;1.55;;;;;;;;;;6182495;28;20125;-70
2022/08/08 05:44:11;;;;;;;;;;;;;;;;;;6184067;28;20046;-72
2022/08/08 05:47:13;;;;;;;6.68;1.65;;;;;;;;;;6186433;28;20209;-68
2022/08/08 05:50:16;;;;;;;3.30;1.50;;;;;;;;;;6187903;28;20051;-69
2022/08/08 05:53:24;;;;;;;2.20;1.48;;;;;;;;;;6184410;28;20993;-68
2022/08/08 05:56:28;;;;;;;2.00;1.42;;;;;;;;;;6182897;28;20074;-69
2022/08/08 05:59:32;;;;;;;2.50;1.60;;;;;;;;;;6183577;28;20086;-69
2022/08/08 06:05:56;;;;;;;5.20;2.35;;;;;;;;;;6185549;28;20313;-68
2022/08/08 06:08:59;;;;;;;;;;;;;;;;;;6188374;28;20050;-69
2022/08/08 06:12:05;;;;;;;3.25;1.55;;;;;;;;;;6184294;28;20222;-68
2022/08/08 06:15:08;;;;;;;3.15;1.58;;;;;;;;;;6182807;28;20069;-69
2022/08/08 06:18:10;;;;;;;2.33;1.83;;;;;;;;;;6183613;28;20401;-70
2022/08/08 06:21:12;;;;;;;6.82;1.58;;;;;;;;;;6184008;28;20053;-71
2022/08/08 06:24:13;;;;;;;7.03;1.80;;;;;;;;;;6184767;28;20066;-69
2022/08/08 06:27:17;;;;;;;2.67;1.70;;;;;;;;;;6184530;28;20057;-68
2022/08/08 06:30:19;;;;;;;2.55;1.75;;;;;;;;;;6185224;28;20049;-68
2022/08/08 06:33:21;;;;;;;2.78;1.48;;;;;;;;;;6184127;28;20113;-68
2022/08/08 06:36:30;;;;;;;3.13;1.15;;;;;;;;;;6182338;28;20345;-68
2022/08/08 06:39:33;;;;;;;2.63;1.90;;;;;;;;;;6185800;28;20047;-70
2022/08/08 06:42:36;;;;;;;4.38;1.45;;;;;;;;;;6184830;28;20061;-68
2022/08/08 06:45:38;;;;;;;3.13;1.50;;;;;;;;;;6183211;28;20089;-67
2022/08/08 06:48:40;;;;;;;4.78;1.48;;;;;;;;;;6187820;28;20066;-68
2022/08/08 06:51:42;;;;;;;2.25;1.35;;;;;;;;;;6184176;28;20050;-69
2022/08/08 06:54:44;;;;;;;3.25;1.50;;;;;;;;;;6183489;28;20073;-69
2022/08/08 06:57:47;;;;;;;3.55;1.50;;;;;;;;;;6182230;28;20062;-68
2022/08/08 07:00:50;;;;;;;3.80;1.50;;;;;;;;;;6185862;28;20110;-68
2022/08/08 07:03:54;;;;;;;8.35;1.63;;;;;;;;;;6187220;28;20074;-68
2022/08/08 07:06:57;;;;;;;2.30;1.55;;;;;;;;;;6183615;28;20219;-68
2022/08/08 07:10:02;;;;;;;4.85;1.70;;;;;;;;;;6182545;28;20049;-69
2022/08/08 07:13:07;;;;;;;2.25;1.38;;;;;;;;;;6184635;28;20050;-69
2022/08/08 07:16:14;;;;;;;4.43;1.70;;;;;;;;;;6183833;28;20043;-68
2022/08/08 07:19:20;;;;;;;1.80;1.38;;;;;;;;;;6182939;28;20129;-68
2022/08/08 07:22:27;;;;;;;3.20;1.58;;;;;;;;;;6181952;28;20050;-69
2022/08/08 07:25:31;;;;;;;4.32;1.52;;;;;;;;;;6182972;28;20054;-70
2022/08/08 07:28:36;;;;;;;4.50;1.60;;;;;;;;;;6183427;28;20322;-68
2022/08/08 07:31:40;;;;;;;4.25;1.70;;;;;;;;;;6182517;28;20085;-68
2022/08/08 07:34:43;;;;;;;8.57;1.70;;;;;;;;;;6184301;28;20297;-72
2022/08/08 07:37:46;;;;;;;2.97;1.63;;;;;;;;;;6181641;28;20141;-69
2022/08/08 07:40:48;;;;;;;3.10;1.60;;;;;;;;;;6182808;28;20047;-68
2022/08/08 07:43:53;;;;;;;3.47;1.67;;;;;;;;;;6183027;28;20097;-68
2022/08/08 07:46:55;;;;;;;5.28;1.70;;;;;;;;;;6182079;28;20058;-70
2022/08/08 07:49:56;;;;;;;3.35;1.60;;;;;;;;;;6184564;28;20050;-68
2022/08/08 07:53:00;;;;;;;2.72;1.60;;;;;;;;;;6183088;28;20234;-69
2022/08/08 07:56:03;;;;;;;2.72;1.65;;;;;;;;;;6183720;28;20324;-69
2022/08/08 07:59:10;;;;;;;2.33;1.45;;;;;;;;;;6183706;28;20063;-69
2022/08/08 08:02:15;;;;;;;2.58;1.80;;;;;;;;;;6182296;28;20385;-66
2022/08/08 08:05:20;;;;;;;3.45;1.70;;;;;;;;;;6181342;28;20055;-72
2022/08/08 08:08:28;;;;;;;6.85;2.33;;;;;;;;;;6183793;28;20054;-70
2022/08/08 08:11:34;;;;;;;3.65;1.67;;;;;;;;;;6181264;28;20364;-68
2022/08/08 08:14:43;;;;;;;5.72;2.20;;;;;;;;;;6182250;28;20052;-68
2022/08/08 08:17:46;;;;;;;7.35;2.47;;;;;;;;;;6182219;28;20054;-68
2022/08/08 08:20:49;;;;;;;4.30;2.30;;;;;;;;;;6182575;28;20057;-69
2022/08/08 08:23:50;;;;;;;5.07;2.03;;;;;;;;;;6179663;28;20070;-69
2022/08/08 08:26:52;;;;;;;4.63;1.75;;;;;;;;;;6177704;28;20050;-69
2022/08/08 08:29:56;;;;;;;3.20;2.07;;;;;;;;;;6182832;28;20051;-69
2022/08/08 08:32:58;;;;;;;6.53;2.30;;;;;;;;;;6183361;28;20556;-69
2022/08/08 08:35:59;;;;;;;5.90;2.17;;;;;;;;;;6183183;28;20062;-69
2022/08/08 08:39:01;;;;;;;3.63;1.93;;;;;;;;;;6181816;28;20063;-70
2022/08/08 08:42:03;;;;;;;2.97;1.90;;;;;;;;;;6182183;28;20102;-68
2022/08/08 08:45:08;;;;;;;6.75;1.90;;;;;;;;;;6180007;28;20066;-68
2022/08/08 08:48:10;;;;;;;3.67;1.95;;;;;;;;;;6181502;28;20106;-70
2022/08/08 08:51:13;;;;;;;5.63;2.10;;;;;;;;;;6180564;28;20337;-69
2022/08/08 08:54:15;;;;;;;2.63;2.05;;;;;;;;;;6181600;28;20110;-69
2022/08/08 08:57:18;;;;;;;2.90;1.95;;;;;;;;;;6181744;28;20065;-69
2022/08/08 09:00:21;;;;;;;3.67;2.10;;;;;;;;;;6181064;28;20300;-68
2022/08/08 09:03:24;;;;;;;2.67;1.73;;;;;;;;;;6182818;28;20300;-72
2022/08/08 09:06:27;;;;;;;4.47;1.90;;;;;;;;;;6181093;28;20059;-69
2022/08/08 09:09:29;;;;;;;3.28;2.00;;;;;;;;;;6179770;28;20392;-69
2022/08/08 09:12:32;;;;;;;2.67;2.15;;;;;;;;;;6179511;28;20073;-68
2022/08/08 09:15:36;;;;;;;3.13;1.98;;;;;;;;;;6179751;28;20090;-69
2022/08/08 09:18:42;;;;;;;3.88;1.95;;;;;;;;;;6179702;28;20058;-69
2022/08/08 09:21:44;;;;;;;5.85;1.80;;;;;;;;;;6179237;28;20059;-69
2022/08/08 09:24:47;;;;;;;5.18;1.88;;;;;;;;;;6180582;28;20381;-69
2022/08/08 09:27:48;;;;;;;4.47;1.92;;;;;;;;;;6181306;28;20043;-68
2022/08/08 09:30:53;;;;;;;2.70;2.30;;;;;;;;;;6180839;28;20121;-69
2022/08/08 09:33:56;;;;;;;5.32;2.13;;;;;;;;;;6182987;28;20043;-69
2022/08/08 09:37:02;;;;;;;3.45;2.30;;;;;;;;;;6182519;28;20050;-69
2022/08/08 09:40:06;;;;;;;2.47;2.28;;;;;;;;;;6186784;28;20329;-69
2022/08/08 09:43:10;;;;;;;3.72;2.78;;;;;;;;;;6185304;28;20337;-69
2022/08/08 09:46:15;;;;;;;4.53;2.53;;;;;;;;;;6184943;28;20066;-69
2022/08/08 09:49:18;;;;;;;2.60;2.05;;;;;;;;;;6187008;28;20063;-68
2022/08/08 09:52:23;;;;;;;2.95;1.80;;;;;;;;;;6185327;28;20101;-71
2022/08/08 09:55:25;;;;;;;4.93;2.33;;;;;;;;;;6186740;28;20059;-69
2022/08/08 09:58:27;;;;;;;;;;;;;;;;;;6186581;28;20057;-68
2022/08/08 10:01:31;;;;;;;2.80;2.50;;;;;;;;;;6184433;28;19965;-69
2022/08/08 10:04:34;;;;;;;4.05;2.33;;;;;;;;;;6185000;28;20058;-69
2022/08/08 10:07:36;;;;;;;3.65;2.33;;;;;;;;;;6183210;28;20042;-69
2022/08/08 10:10:39;;;;;;;2.70;2.08;;;;;;;;;;6183815;28;20285;-70
2022/08/08 10:13:52;;;;;;;3.00;2.70;;;;;;;;;;6186221;28;20054;-69
2022/08/08 10:16:55;;;;;;;2.83;2.20;;;;;;;;;;6187358;28;20233;-69
2022/08/08 10:19:58;;;;;;;2.13;1.92;;;;;;;;;;6184282;28;20074;-69
2022/08/08 10:23:03;;;;;;;2.47;2.00;;;;;;;;;;6183657;28;20065;-71
2022/08/08 10:26:05;;;;;;;2.38;2.20;;;;;;;;;;6185085;28;20357;-70
2022/08/08 10:29:08;;;;;;;3.10;1.77;;;;;;;;;;6183078;28;20055;-69
2022/08/08 10:32:34;;;;;;;2.92;2.10;;;;;;;;;;6187156;28;20094;-69
2022/08/08 10:35:36;;;;;;;5.18;2.08;;;;;;;;;;6181985;28;20387;-70
2022/08/08 10:38:37;;;;;;;2.40;2.20;;;;;;;;;;6187511;28;20050;-69
2022/08/08 10:41:40;;;;;;;2.25;2.08;;;;;;;;;;6185290;28;20077;-70
2022/08/08 10:44:42;;;;;;;2.05;1.90;;;;;;;;;;6186621;28;20078;-69
2022/08/08 10:47:52;;;;;;;1.90;1.80;;;;;;;;;;6191439;28;20050;-69
2022/08/08 10:50:54;;;;;;;2.60;2.35;;;;;;;;;;6190927;28;20062;-69
2022/08/08 10:53:56;;;;;;;3.17;1.88;;;;;;;;;;6189670;28;20105;-70
2022/08/08 10:56:58;;;;;;;2.08;1.92;;;;;;;;;;6196002;28;20113;-69
2022/08/08 11:00:00;;;;;;;2.03;1.70;;;;;;;;;;6189023;28;20057;-69
2022/08/08 11:03:12;;;;;;;2.42;1.92;;;;;;;;;;6193812;28;20046;-69
2022/08/08 11:06:16;;;;;;;1.75;1.65;;;;;;;;;;6191804;28;20380;-69
2022/08/08 11:09:17;;;;;;;1.92;1.80;;;;;;;;;;6193668;28;20054;-70
2022/08/08 11:12:19;;;;;;;2.17;1.77;;;;;;;;;;6189432;28;20055;-69
2022/08/08 11:15:22;;;;;;;2.10;1.90;;;;;;;;;;6189827;28;20050;-69
2022/08/08 11:18:25;;;;;;;2.95;1.92;;;;;;;;;;6187410;28;20053;-70
2022/08/08 11:21:29;;;;;;;2.17;1.98;;;;;;;;;;6182185;28;20058;-69
2022/08/08 11:24:32;;;;;;;2.28;2.08;;;;;;;;;;6180027;28;20058;-70
2022/08/08 11:27:35;;;;;;;2.17;1.98;;;;;;;;;;6181477;28;20207;-69
2022/08/08 11:30:37;;;;;;;1.80;1.70;;;;;;;;;;6182314;28;20042;-73
2022/08/08 11:33:41;;;;;;;2.20;2.10;;;;;;;;;;6182110;28;20325;-70
2022/08/08 11:36:43;;;;;;;2.30;2.10;;;;;;;;;;6181945;28;20058;-70
2022/08/08 11:39:45;;;;;;;1.85;1.63;;;;;;;;;;6180732;28;20055;-70
2022/08/08 11:42:47;;;;;;;1.92;1.83;;;;;;;;;;6182948;28;20101;-71
2022/08/08 11:45:50;;;;;;;2.10;1.90;;;;;;;;;;6180147;28;20230;-69
2022/08/08 11:48:54;;;;;;;1.90;1.67;;;;;;;;;;6184675;28;20313;-69
2022/08/08 11:51:56;;;;;;;3.05;1.80;;;;;;;;;;6181708;28;20054;-69
2022/08/08 11:54:58;;;;;;;2.10;1.90;;;;;;;;;;6181015;28;20069;-69
2022/08/08 11:58:03;;;;;;;2.13;2.00;;;;;;;;;;6183034;28;20046;-70
2022/08/08 12:01:05;;;;;;;2.40;2.10;;;;;;;;;;6182062;28;20070;-69
2022/08/08 12:04:09;;;;;;;4.07;1.95;;;;;;;;;;6182492;28;20050;-69
2022/08/08 12:07:10;;;;;;;2.15;1.95;;;;;;;;;;6181919;28;20066;-70
2022/08/08 12:10:13;;;;;;;2.88;2.33;;;;;;;;;;6181622;28;20909;-70
2022/08/08 12:13:21;;;;;;;2.20;2.00;;;;;;;;;;6181477;28;20047;-73
2022/08/08 12:16:22;;;;;;;3.15;2.30;;;;;;;;;;6181966;28;20090;-71
2022/08/08 12:19:26;;;;;;;3.38;2.10;;;;;;;;;;6182948;28;20062;-72
2022/08/08 12:22:27;;;;;;;2.30;2.10;;;;;;;;;;6181250;28;20050;-71
2022/08/08 12:25:33;;;;;;;3.15;1.88;;;;;;;;;;6182323;28;20062;-70
2022/08/08 12:28:35;;;;;;;2.38;2.15;;;;;;;;;;6180778;28;20089;-70
2022/08/08 12:31:36;;;;;;;3.28;2.22;;;;;;;;;;6181735;28;20046;-69
2022/08/08 12:34:42;;;;;;;2.80;2.05;;;;;;;;;;6181697;28;20051;-69
2022/08/08 12:37:44;;;;;;;2.88;2.30;;;;;;;;;;6182574;28;20078;-70
2022/08/08 12:40:47;;;;;;;2.38;2.17;;;;;;;;;;6180970;28;20073;-70
2022/08/08 12:43:49;;;;;;;2.33;2.03;;;;;;;;;;6180582;28;20113;-69
2022/08/08 12:46:54;;;;;;;2.15;2.00;;;;;;;;;;6182058;28;20057;-69
2022/08/08 12:49:57;;;;;;;3.17;1.92;;;;;;;;;;6182048;28;20102;-70
2022/08/08 12:52:59;;;;;;;6.50;2.25;;;;;;;;;;6181988;28;20122;-71
2022/08/08 12:56:02;;;;;;;3.40;2.10;;;;;;;;;;6181727;28;20233;-70
2022/08/08 12:59:15;;;;;;;4.78;2.20;;;;;;;;;;6179512;28;20055;-70
2022/08/08 13:02:22;;;;;;;2.45;2.03;;;;;;;;;;6180652;28;20054;-70
2022/08/08 13:05:25;;;;;;;4.53;2.30;;;;;;;;;;6179755;28;20078;-70
2022/08/08 13:08:26;;;;;;;2.28;2.08;;;;;;;;;;6182488;28;20066;-71
2022/08/08 13:11:34;;;;;;;2.97;2.53;;;;;;;;;;6182876;28;20046;-69
2022/08/08 13:14:37;;;;;;;2.40;2.20;;;;;;;;;;6184872;28;20043;-70
2022/08/08 13:17:39;;;;;;;3.33;2.00;;;;;;;;;;6184972;28;20067;-71
2022/08/08 13:20:45;;;;;;;4.53;2.40;;;;;;;;;;6186487;28;20050;-69
2022/08/08 13:23:47;;;;;;;6.32;2.33;;;;;;;;;;6185458;28;20050;-69
2022/08/08 13:26:48;;;;;;;2.97;2.05;;;;;;;;;;6183906;28;20238;-69
2022/08/08 13:29:52;;;;;;;2.60;2.10;;;;;;;;;;6186562;28;20151;-70
2022/08/08 13:32:55;;;;;;;2.50;2.30;;;;;;;;;;6188388;28;20256;-71
2022/08/08 13:35:58;;;;;;;5.60;2.20;;;;;;;;;;6185628;28;20050;-69
2022/08/08 13:39:00;;;;;;;2.20;2.00;;;;;;;;;;6184836;28;20325;-70
2022/08/08 13:42:03;;;;;;;5.97;2.10;;;;;;;;;;6186894;28;20047;-71
2022/08/08 13:45:05;;;;;;;2.10;2.00;;;;;;;;;;6186123;28;20047;-70
2022/08/08 13:48:12;;;;;;;3.67;1.80;;;;;;;;;;6186763;28;20057;-69
2022/08/08 13:51:16;;;;;;;2.60;2.00;;;;;;;;;;6182523;28;20277;-69
2022/08/08 13:54:20;;;;;;;2.22;2.03;;;;;;;;;;6184893;28;20057;-71
2022/08/08 13:57:26;;;;;;;2.63;2.15;;;;;;;;;;6185993;28;20341;-70
2022/08/08 14:00:28;;;;;;;2.00;1.90;;;;;;;;;;6186719;28;20068;-69
2022/08/08 14:03:30;;;;;;;3.47;2.00;;;;;;;;;;6185021;28;20119;-70
2022/08/08 14:06:43;;;;;;;2.65;2.17;;;;;;;;;;6185188;28;20069;-69
2022/08/08 14:09:45;;;;;;;2.65;1.90;;;;;;;;;;6185252;28;20115;-70
2022/08/08 14:12:47;;;;;;;3.35;2.00;;;;;;;;;;6184679;28;20062;-70
2022/08/08 14:15:51;;;;;;;4.57;2.00;;;;;;;;;;6183405;28;20051;-69
2022/08/08 14:18:54;;;;;;;3.83;1.95;;;;;;;;;;6184774;28;20105;-70
2022/08/08 14:21:57;;;;;;;5.55;2.58;;;;;;;;;;6183668;28;20733;-69
2022/08/08 14:25:02;;;;;;;3.50;2.00;;;;;;;;;;6184669;28;20333;-69
2022/08/08 14:28:08;;;;;;;2.40;2.20;;;;;;;;;;6184096;28;20046;-70
2022/08/08 14:31:11;;;;;;;2.60;2.20;;;;;;;;;;6181724;28;20051;-71
2022/08/08 14:34:12;;;;;;;2.03;1.88;;;;;;;;;;6188445;28;20050;-69
2022/08/08 14:37:17;;;;;;;3.53;2.00;;;;;;;;;;6184733;28;21863;-69
2022/08/08 14:40:20;;;;;;;3.28;1.98;;;;;;;;;;6183223;28;20121;-70
2022/08/08 14:43:26;;;;;;;3.45;2.25;;;;;;;;;;6184626;28;20055;-70
2022/08/08 14:46:30;;;;;;;3.00;2.08;;;;;;;;;;6183924;28;20042;-69
2022/08/08 14:49:33;;;;;;;2.53;2.30;;;;;;;;;;6189445;28;20066;-69
2022/08/08 14:52:58;;;;;;;2.50;2.30;;;;;;;;;;6183368;28;20059;-70
2022/08/08 14:56:00;;;;;;;3.38;2.20;;;;;;;;;;6180867;28;20210;-69
2022/08/08 14:59:01;;;;;;;5.60;2.35;;;;;;;;;;6181945;28;20082;-69
2022/08/08 15:02:05;;;;;;;3.22;2.10;;;;;;;;;;6184588;28;20043;-70
2022/08/08 15:05:07;;;;;;;4.57;2.10;;;;;;;;;;6183581;28;20394;-69
2022/08/08 15:08:11;;;;;;;2.40;2.05;;;;;;;;;;6185768;28;20242;-72
2022/08/08 15:11:12;;;;;;;2.72;2.25;;;;;;;;;;6182528;28;20106;-71
2022/08/08 15:14:14;;;;;;;3.53;2.15;;;;;;;;;;6183751;28;20090;-69
2022/08/08 15:17:16;;;;;;;2.70;2.10;;;;;;;;;;6181579;28;20054;-69
2022/08/08 15:20:18;;;;;;;2.45;2.05;;;;;;;;;;6183769;28;20108;-70
2022/08/08 15:23:21;;;;;;;4.18;2.63;;;;;;;;;;6181347;28;20050;-69
2022/08/08 15:26:22;;;;;;;3.60;2.17;;;;;;;;;;6181598;28;20062;-70
2022/08/08 15:29:24;;;;;;;4.20;2.47;;;;;;;;;;6183339;28;20412;-69
2022/08/08 15:32:27;;;;;;;;;;;;;;;;;;6183641;28;20061;-69
2022/08/08 15:35:29;;;;;;;2.90;2.15;;;;;;;;;;6185401;28;19917;-69
2022/08/08 15:38:33;;;;;;;4.18;2.15;;;;;;;;;;6181395;28;20441;-69
2022/08/08 15:41:34;;;;;;;3.30;2.20;;;;;;;;;;6181870;28;20062;-69
2022/08/08 15:44:36;;;;;;;2.67;2.30;;;;;;;;;;6181507;28;20337;-71
2022/08/08 15:47:38;;;;;;;;;;;;;;;;;;6184357;28;20069;-69
2022/08/08 15:54:00;;;;;;;2.72;2.50;;;;;;;;;;6182767;28;20046;-69
2022/08/08 15:57:02;;;;;;;4.05;2.42;;;;;;;;;;6182373;28;20330;-68
2022/08/08 16:00:05;;;;;;;2.42;2.22;;;;;;;;;;6182837;28;20074;-72
2022/08/08 16:03:06;;;;;;;3.28;2.22;;;;;;;;;;6183280;28;20054;-70
2022/08/08 16:06:08;;;;;;;7.15;2.28;;;;;;;;;;6179901;28;20308;-68
2022/08/08 16:09:11;;;;;;;2.60;2.40;;;;;;;;;;6182777;28;20050;-69
2022/08/08 16:12:13;;;;;;;3.17;2.35;;;;;;;;;;6180515;28;20070;-68
2022/08/08 16:15:15;;;;;;;3.50;2.30;;;;;;;;;;6179481;28;20050;-70
2022/08/08 16:18:16;;;;;;;2.90;2.60;;;;;;;;;;6182186;28;20042;-69
2022/08/08 16:21:18;;;;;;;3.40;2.60;;;;;;;;;;6180607;28;20114;-68
2022/08/08 16:24:22;;;;;;;2.47;2.28;;;;;;;;;;6181968;28;20062;-69
2022/08/08 16:27:24;;;;;;;2.67;2.28;;;;;;;;;;6179475;28;20054;-69
2022/08/08 16:30:25;;;;;;;3.27;2.40;;;;;;;;;;6179344;28;20051;-68
2022/08/08 16:33:27;;;;;;;3.00;2.38;;;;;;;;;;6178980;28;20054;-68
2022/08/08 16:36:29;;;;;;;3.73;2.30;;;;;;;;;;6180565;28;20059;-68
2022/08/08 16:39:32;;;;;;;3.45;2.22;;;;;;;;;;6182478;28;20497;-69
2022/08/08 16:42:34;;;;;;;2.70;2.42;;;;;;;;;;6182489;28;20376;-72
2022/08/08 16:45:36;;;;;;;3.67;2.63;;;;;;;;;;6181072;28;20050;-69
2022/08/08 16:48:38;;;;;;;4.95;2.50;;;;;;;;;;6184614;28;20157;-69
2022/08/08 16:51:40;;;;;;;3.75;2.40;;;;;;;;;;6181788;28;20049;-69
2022/08/08 16:54:43;;;;;;;2.90;2.10;;;;;;;;;;6177909;28;20054;-68
2022/08/08 16:57:45;;;;;;;3.53;2.60;;;;;;;;;;6178766;28;20047;-71
2022/08/08 17:00:48;;;;;;;3.90;2.50;;;;;;;;;;6183859;28;20337;-68
2022/08/08 17:03:49;;;;;;;2.40;2.20;;;;;;;;;;6182922;28;20102;-67
2022/08/08 17:06:51;;;;;;;2.50;2.30;;;;;;;;;;6180591;28;20105;-69
2022/08/08 17:09:54;;;;;;;6.90;2.50;;;;;;;;;;6179392;28;20062;-69
2022/08/08 17:12:56;;;;;;;3.75;2.10;;;;;;;;;;6183363;28;20329;-68
2022/08/08 17:15:58;;;;;;;6.47;2.57;;;;;;;;;;6181289;28;20055;-68
2022/08/08 17:18:59;;;;;;;7.32;2.90;;;;;;;;;;6180401;28;20512;-69
2022/08/08 17:22:02;;;;;;;3.83;2.63;;;;;;;;;;6179801;28;20879;-72
2022/08/08 17:25:07;;;;;;;4.32;2.50;;;;;;;;;;6180893;28;20043;-70
2022/08/08 17:28:08;;;;;;;3.78;2.58;;;;;;;;;;6178905;28;20055;-68
2022/08/08 17:31:10;;;;;;;6.05;2.47;;;;;;;;;;6178103;28;20054;-70
2022/08/08 17:34:12;;;;;;;2.95;2.65;;;;;;;;;;6182268;28;20074;-69
2022/08/08 17:37:14;;;;;;;4.85;2.47;;;;;;;;;;6179809;28;20066;-68
2022/08/08 17:40:17;;;;;;;3.85;2.70;;;;;;;;;;6180426;28;20051;-68
2022/08/08 17:43:18;;;;;;;3.60;2.78;;;;;;;;;;6177759;28;20046;-70
2022/08/08 17:46:37;;;;;;;3.00;2.53;;;;;;;;;;6181140;28;20330;-71
2022/08/08 17:49:38;;;;;;;4.60;2.70;;;;;;;;;;6185346;28;20118;-68
2022/08/08 17:52:40;;;;;;;3.22;2.63;;;;;;;;;;6181575;28;20047;-69
2022/08/08 17:55:43;;;;;;;3.08;2.70;;;;;;;;;;6178923;28;20325;-69
2022/08/08 17:58:45;;;;;;;3.75;2.40;;;;;;;;;;6186809;28;20126;-68
2022/08/08 18:01:48;;;;;;;3.47;2.55;;;;;;;;;;6183140;28;20042;-72
2022/08/08 18:04:50;;;;;;;5.53;2.88;;;;;;;;;;6186023;28;20054;-69
2022/08/08 18:07:52;;;;;;;6.00;2.85;;;;;;;;;;6185575;28;20057;-69
2022/08/08 18:10:55;;;;;;;4.50;2.28;;;;;;;;;;6183302;28;20235;-68
2022/08/08 18:13:56;;;;;;;3.67;2.47;;;;;;;;;;6183233;28;20101;-71
2022/08/08 18:16:58;;;;;;;2.70;2.50;;;;;;;;;;6185207;28;20062;-70
2022/08/08 18:20:04;;;;;;;5.32;2.83;;;;;;;;;;6184654;28;20695;-70
2022/08/08 18:23:06;;;;;;;4.80;2.53;;;;;;;;;;6185194;28;20360;-68
2022/08/08 18:26:09;;;;;;;4.57;2.42;;;;;;;;;;6183039;28;20337;-68
2022/08/08 18:29:11;;;;;;;2.92;2.63;;;;;;;;;;6185686;28;20053;-72
2022/08/08 18:32:12;;;;;;;4.77;3.10;;;;;;;;;;6185994;28;20051;-69
2022/08/08 18:35:14;;;;;;;3.10;2.40;;;;;;;;;;6183145;28;20059;-68
2022/08/08 18:38:16;;;;;;;3.65;2.72;;;;;;;;;;6185713;28;20054;-68
2022/08/08 18:41:19;;;;;;;5.03;2.58;;;;;;;;;;6182530;28;20257;-68
2022/08/08 18:44:20;;;;;;;5.32;2.38;;;;;;;;;;6184679;28;20061;-70